createdAt,value
2018-12-21T00:00:10.846Z,100840.77
2018-12-21T00:02:39.156Z,100834.47
2018-12-21T00:05:07.509Z,100830.77
2018-12-21T00:07:35.977Z,100835.42
2018-12-21T00:10:05.842Z,100825.67
2018-12-21T00:12:34.169Z,100825.22
2018-12-21T00:15:03.050Z,100825.47
2018-12-21T00:17:34.763Z,100818.81
2018-12-21T00:20:01.734Z,100821.27
2018-12-21T00:22:30.066Z,100818.42
2018-12-21T00:24:58.415Z,100826.75
2018-12-21T00:27:26.807Z,100824.52
2018-12-21T00:29:55.202Z,100818.03
2018-12-21T00:32:28.932Z,100818.87
2018-12-21T00:35:03.022Z,100803.73
2018-12-21T00:37:36.771Z,100802.43
2018-12-21T00:40:12.473Z,100801.97
2018-12-21T00:42:42.856Z,100803.56
2018-12-21T00:45:13.117Z,100794.23
2018-12-21T00:47:41.524Z,100802.08
2018-12-21T00:50:10.382Z,100785.28
2018-12-21T00:52:38.902Z,100792.52
2018-12-21T00:55:07.366Z,100788.42
2018-12-21T00:57:35.727Z,100789.50
2018-12-21T01:00:07.378Z,100789.92
2018-12-21T01:02:35.847Z,100790.98
2018-12-21T01:05:04.557Z,100789.39
2018-12-21T01:07:32.969Z,100784.73
2018-12-21T01:10:01.433Z,100790.78
2018-12-21T01:12:29.787Z,100794.88
2018-12-21T01:14:58.641Z,100786.34
2018-12-21T01:17:26.989Z,100790.44
2018-12-21T01:19:55.466Z,100790.18
2018-12-21T01:22:23.841Z,100799.46
2018-12-21T01:24:52.168Z,100797.52
2018-12-21T01:27:20.509Z,100798.30
2018-12-21T01:29:48.853Z,100800.55
2018-12-21T01:32:17.344Z,100790.33
2018-12-21T01:34:45.701Z,100790.63
2018-12-21T01:37:14.212Z,100787.94
2018-12-21T01:39:42.521Z,100793.03
2018-12-21T01:42:10.897Z,100794.83
2018-12-21T01:44:39.320Z,100789.59
2018-12-21T01:47:07.673Z,100791.13
2018-12-21T01:49:36.022Z,100787.73
2018-12-21T01:52:04.413Z,100790.98
2018-12-21T01:54:32.741Z,100787.59
2018-12-21T01:57:01.043Z,100788.69
2018-12-21T01:59:29.630Z,100782.34
2018-12-21T02:01:57.933Z,100785.58
2018-12-21T02:04:26.291Z,100783.59
2018-12-21T02:06:54.665Z,100777.73
2018-12-21T02:09:22.990Z,100770.08
2018-12-21T02:11:51.297Z,100761.70
2018-12-21T02:14:19.640Z,100764.84
2018-12-21T02:16:47.990Z,100755.75
2018-12-21T02:19:16.307Z,100748.05
2018-12-21T02:21:44.967Z,100748.11
2018-12-21T02:24:13.311Z,100752.05
2018-12-21T02:26:41.652Z,100747.36
2018-12-21T02:29:10.037Z,100750.16
2018-12-21T02:31:38.370Z,100740.80
2018-12-21T02:34:06.663Z,100743.73
2018-12-21T02:36:34.983Z,100752.88
2018-12-21T02:39:04.389Z,100752.30
2018-12-21T02:41:32.674Z,100748.84
2018-12-21T02:44:01.488Z,100747.09
2018-12-21T02:46:29.822Z,100753.91
2018-12-21T02:48:58.137Z,100748.66
2018-12-21T02:51:26.432Z,100752.80
2018-12-21T02:53:54.774Z,100742.45
2018-12-21T02:56:23.084Z,100740.20
2018-12-21T02:58:51.431Z,100740.06
2018-12-21T03:01:19.878Z,100734.95
2018-12-21T03:03:48.273Z,100742.28
2018-12-21T03:06:17.204Z,100739.46
2018-12-21T03:08:45.496Z,100729.01
2018-12-21T03:11:13.807Z,100734.01
2018-12-21T03:13:42.126Z,100735.91
2018-12-21T03:16:10.427Z,100741.51
2018-12-21T03:18:38.718Z,100732.27
2018-12-21T03:21:07.047Z,100725.63
2018-12-21T03:23:35.580Z,100723.92
2018-12-21T03:26:03.892Z,100716.42
2018-12-21T03:28:32.548Z,100710.98
2018-12-21T03:31:00.880Z,100715.07
2018-12-21T03:33:29.603Z,100705.29
2018-12-21T03:35:58.070Z,100703.05
2018-12-21T03:38:26.527Z,100709.39
2018-12-21T03:40:54.893Z,100699.48
2018-12-21T03:43:23.332Z,100696.50
2018-12-21T03:45:51.695Z,100692.05
2018-12-21T03:48:20.236Z,100685.84
2018-12-21T03:50:49.207Z,100687.20
2018-12-21T03:53:17.901Z,100678.79
2018-12-21T03:55:46.279Z,100674.06
2018-12-21T03:58:14.676Z,100668.21
2018-12-21T04:00:43.118Z,100663.66
2018-12-21T04:03:11.448Z,100660.03
2018-12-21T04:05:39.881Z,100652.30
2018-12-21T04:08:08.201Z,100647.20
2018-12-21T04:10:36.529Z,100650.70
2018-12-21T04:13:05.427Z,100647.81
2018-12-21T04:15:34.159Z,100641.16
2018-12-21T04:18:02.512Z,100640.34
2018-12-21T04:20:30.840Z,100642.86
2018-12-21T04:22:59.121Z,100638.62
2018-12-21T04:25:27.442Z,100640.16
2018-12-21T04:27:55.741Z,100634.07
2018-12-21T04:30:24.036Z,100632.09
2018-12-21T04:32:52.361Z,100633.47
2018-12-21T04:35:20.777Z,100631.86
2018-12-21T04:37:49.099Z,100631.07
2018-12-21T04:40:17.597Z,100628.98
2018-12-21T04:42:45.920Z,100624.58
2018-12-21T04:45:14.333Z,100619.37
2018-12-21T04:47:42.653Z,100619.44
2018-12-21T04:50:11.066Z,100614.95
2018-12-21T04:52:43.374Z,100611.95
2018-12-21T04:55:09.873Z,100607.84
2018-12-21T04:57:38.274Z,100608.01
2018-12-21T05:00:07.966Z,100609.53
2018-12-21T05:02:36.275Z,100610.03
2018-12-21T05:05:05.201Z,100611.86
2018-12-21T05:07:40.191Z,100605.95
2018-12-21T05:10:09.188Z,100597.74
2018-12-21T05:12:37.533Z,100596.17
2018-12-21T05:15:06.478Z,100597.17
2018-12-21T05:17:35.092Z,100597.83
2018-12-21T05:20:03.692Z,100592.05
2018-12-21T05:22:31.990Z,100584.69
2018-12-21T05:25:00.318Z,100585.69
2018-12-21T05:27:28.675Z,100579.47
2018-12-21T05:29:56.965Z,100577.13
2018-12-21T05:32:25.290Z,100571.86
2018-12-21T05:34:53.593Z,100571.45
2018-12-21T05:37:21.972Z,100571.16
2018-12-21T05:39:50.478Z,100578.41
2018-12-21T05:42:18.766Z,100570.39
2018-12-21T05:44:47.077Z,100554.72
2018-12-21T05:47:15.386Z,100565.27
2018-12-21T05:49:43.704Z,100559.84
2018-12-21T05:52:12.007Z,100558.52
2018-12-21T05:54:40.317Z,100546.23
2018-12-21T05:57:08.662Z,100536.11
2018-12-21T05:59:36.993Z,100531.25
2018-12-21T06:02:06.579Z,100529.91
2018-12-21T06:04:34.880Z,100526.48
2018-12-21T06:07:03.207Z,100520.52
2018-12-21T06:09:31.532Z,100507.45
2018-12-21T06:11:59.892Z,100507.64
2018-12-21T06:14:28.215Z,100503.81
2018-12-21T06:16:56.788Z,100495.34
2018-12-21T06:19:25.180Z,100493.99
2018-12-21T06:21:53.458Z,100485.86
2018-12-21T06:24:22.322Z,100479.00
2018-12-21T06:26:50.598Z,100484.65
2018-12-21T06:29:18.882Z,100473.72
2018-12-21T06:31:47.232Z,100476.48
2018-12-21T06:34:15.567Z,100469.95
2018-12-21T06:36:43.874Z,100468.25
2018-12-21T06:39:12.220Z,100459.08
2018-12-21T06:41:41.421Z,100457.81
2018-12-21T06:44:09.757Z,100455.34
2018-12-21T06:46:38.656Z,100455.31
2018-12-21T06:49:08.015Z,100452.03
2018-12-21T06:51:36.396Z,100463.09
2018-12-21T06:54:04.790Z,100458.62
2018-12-21T06:56:33.155Z,100454.61
2018-12-21T06:59:01.519Z,100454.58
2018-12-21T07:01:29.966Z,100455.73
2018-12-21T07:03:58.409Z,100451.42
2018-12-21T07:06:26.918Z,100450.91
2018-12-21T07:08:55.704Z,100443.09
2018-12-21T07:11:24.167Z,100433.48
2018-12-21T07:13:52.993Z,100428.18
2018-12-21T07:16:21.395Z,100428.72
2018-12-21T07:18:49.766Z,100420.94
2018-12-21T07:21:18.398Z,100405.33
2018-12-21T07:23:46.737Z,100411.22
2018-12-21T07:26:15.085Z,100399.39
2018-12-21T07:28:43.385Z,100389.58
2018-12-21T07:31:12.137Z,100389.95
2018-12-21T07:33:40.490Z,100382.73
2018-12-21T07:36:08.960Z,100380.27
2018-12-21T07:38:37.343Z,100373.59
2018-12-21T07:41:05.628Z,100367.95
2018-12-21T07:43:33.933Z,100354.91
2018-12-21T07:46:02.320Z,100356.06
2018-12-21T07:48:30.625Z,100358.55
2018-12-21T07:50:58.923Z,100348.51
2018-12-21T07:53:35.681Z,100349.55
2018-12-21T07:55:57.735Z,100336.06
2018-12-21T07:58:26.036Z,100329.80
2018-12-21T08:00:54.348Z,100332.89
2018-12-21T08:03:22.689Z,100329.98
2018-12-21T08:05:50.988Z,100333.38
2018-12-21T08:08:19.319Z,100324.52
2018-12-21T08:10:47.687Z,100331.80
2018-12-21T08:13:15.994Z,100327.83
2018-12-21T08:15:44.830Z,100329.73
2018-12-21T08:18:13.167Z,100327.14
2018-12-21T08:20:41.524Z,100327.06
2018-12-21T08:23:09.880Z,100314.72
2018-12-21T08:25:38.214Z,100318.50
2018-12-21T08:28:06.578Z,100307.60
2018-12-21T08:30:34.951Z,100308.42
2018-12-21T08:33:07.412Z,100307.73
2018-12-21T08:35:36.151Z,100296.55
2018-12-21T08:38:04.497Z,100302.23
2018-12-21T08:40:32.839Z,100294.98
2018-12-21T08:43:01.184Z,100292.61
2018-12-21T08:45:29.515Z,100283.48
2018-12-21T08:47:57.803Z,100277.50
2018-12-21T08:50:26.315Z,100281.72
2018-12-21T08:52:54.661Z,100280.66
2018-12-21T08:55:22.989Z,100264.43
2018-12-21T08:57:51.444Z,100260.95
2018-12-21T09:00:19.744Z,100261.00
2018-12-21T09:02:48.045Z,100248.14
2018-12-21T09:05:16.387Z,100236.06
2018-12-21T09:07:44.717Z,100238.08
2018-12-21T09:10:13.089Z,100236.22
2018-12-21T09:12:41.419Z,100226.53
2018-12-21T09:15:12.473Z,100226.08
2018-12-21T09:17:40.849Z,100210.80
2018-12-21T09:20:11.648Z,100216.17
2018-12-21T09:22:40.984Z,100200.31
2018-12-21T09:25:09.381Z,100190.03
2018-12-21T09:27:37.711Z,100186.45
2018-12-21T09:30:10.925Z,100176.36
2018-12-21T09:32:39.293Z,100175.86
2018-12-21T09:35:07.632Z,100169.30
2018-12-21T09:37:35.965Z,100159.02
2018-12-21T09:40:08.152Z,100159.34
2018-12-21T09:42:36.462Z,100149.18
2018-12-21T09:45:05.320Z,100152.03
2018-12-21T09:47:33.656Z,100133.16
2018-12-21T09:50:02.061Z,100134.81
2018-12-21T09:52:30.693Z,100127.05
2018-12-21T09:54:59.056Z,100105.50
2018-12-21T09:57:27.351Z,100106.73
2018-12-21T09:59:55.712Z,100099.99
2018-12-21T10:02:24.280Z,100094.27
2018-12-21T10:04:52.610Z,100092.91
2018-12-21T10:07:27.599Z,100085.66
2018-12-21T10:09:51.274Z,100071.16
2018-12-21T10:12:19.568Z,100059.34
2018-12-21T10:14:47.871Z,100051.24
2018-12-21T10:17:16.248Z,100041.12
2018-12-21T10:19:44.571Z,100040.11
2018-12-21T10:22:12.927Z,100047.53
2018-12-21T10:24:41.519Z,100037.76
2018-12-21T10:27:09.839Z,100032.51
2018-12-21T10:29:38.124Z,100023.08
2018-12-21T10:32:06.501Z,100016.47
2018-12-21T10:34:34.805Z,100013.09
2018-12-21T10:37:03.138Z,100008.21
2018-12-21T10:39:31.477Z,100002.66
2018-12-21T10:41:59.818Z,99987.83
2018-12-21T10:44:28.108Z,99992.89
2018-12-21T10:46:56.933Z,99981.09
2018-12-21T10:49:25.345Z,99978.05
2018-12-21T10:51:53.643Z,99971.97
2018-12-21T10:54:26.771Z,99964.69
2018-12-21T10:56:52.387Z,99958.92
2018-12-21T10:59:21.129Z,99956.45
2018-12-21T11:01:49.744Z,99948.54
2018-12-21T11:04:18.071Z,99936.93
2018-12-21T11:06:46.399Z,99931.53
2018-12-21T11:09:15.268Z,99932.89
2018-12-21T11:11:43.623Z,99916.37
2018-12-21T11:14:12.171Z,99921.41
2018-12-21T11:16:40.542Z,99898.15
2018-12-21T11:19:08.922Z,99893.95
2018-12-21T11:21:37.221Z,99887.05
2018-12-21T11:24:05.641Z,99879.44
2018-12-21T11:26:33.962Z,99878.27
2018-12-21T11:29:02.307Z,99861.74
2018-12-21T11:31:31.034Z,99869.31
2018-12-21T11:33:59.367Z,99850.61
2018-12-21T11:36:27.668Z,99840.33
2018-12-21T11:38:56.007Z,99827.38
2018-12-21T11:41:24.340Z,99827.07
2018-12-21T11:43:52.654Z,99818.98
2018-12-21T11:46:21.006Z,99811.05
2018-12-21T11:48:49.324Z,99818.20
2018-12-21T11:51:17.644Z,99804.00
2018-12-21T11:53:46.381Z,99799.86
2018-12-21T11:56:14.724Z,99786.95
2018-12-21T11:58:43.027Z,99785.23
2018-12-21T12:01:11.370Z,99779.41
2018-12-21T12:03:39.700Z,99771.77
2018-12-21T12:06:07.984Z,99770.07
2018-12-21T12:08:36.353Z,99748.20
2018-12-21T12:11:04.648Z,99732.45
2018-12-21T12:13:33.034Z,99722.17
2018-12-21T12:16:01.813Z,99721.53
2018-12-21T12:18:30.150Z,99707.40
2018-12-21T12:20:58.464Z,99701.32
2018-12-21T12:23:26.769Z,99691.88
2018-12-21T12:25:55.104Z,99688.48
2018-12-21T12:28:23.518Z,99677.39
2018-12-21T12:30:51.936Z,99669.17
2018-12-21T12:33:20.243Z,99674.41
2018-12-21T12:35:48.561Z,99649.93
2018-12-21T12:38:16.928Z,99664.39
2018-12-21T12:40:45.228Z,99645.87
2018-12-21T12:43:13.577Z,99647.41
2018-12-21T12:45:41.959Z,99643.09
2018-12-21T12:48:10.489Z,99639.34
2018-12-21T12:50:39.005Z,99634.84
2018-12-21T12:53:07.344Z,99621.33
2018-12-21T12:55:35.653Z,99617.67
2018-12-21T12:58:03.979Z,99604.13
2018-12-21T13:00:32.395Z,99604.36
2018-12-21T13:03:00.701Z,99597.81
2018-12-21T13:05:29.072Z,99587.72
2018-12-21T13:07:57.414Z,99578.51
2018-12-21T13:10:25.721Z,99568.92
2018-12-21T13:12:54.102Z,99565.20
2018-12-21T13:15:22.470Z,99550.59
2018-12-21T13:17:50.863Z,99553.68
2018-12-21T13:20:19.188Z,99543.63
2018-12-21T13:22:47.795Z,99534.95
2018-12-21T13:25:16.179Z,99530.43
2018-12-21T13:27:44.511Z,99524.41
2018-12-21T13:30:12.920Z,99523.66
2018-12-21T13:32:41.199Z,99501.74
2018-12-21T13:35:09.953Z,99500.14
2018-12-21T13:37:38.367Z,99505.71
2018-12-21T13:40:09.736Z,99486.84
2018-12-21T13:42:38.030Z,99483.00
2018-12-21T13:45:08.804Z,99483.84
2018-12-21T13:47:37.110Z,99468.38
2018-12-21T13:50:09.165Z,99457.83
2018-12-21T13:52:37.475Z,99457.72
2018-12-21T13:55:05.870Z,99447.87
2018-12-21T13:57:34.209Z,99440.98
2018-12-21T14:00:02.690Z,99458.34
2018-12-21T14:02:31.013Z,99447.71
2018-12-21T14:04:59.926Z,99448.91
2018-12-21T14:07:28.347Z,99436.56
2018-12-21T14:09:56.662Z,99436.05
2018-12-21T14:12:25.003Z,99432.08
2018-12-21T14:14:53.274Z,99428.30
2018-12-21T14:17:21.537Z,99426.66
2018-12-21T14:19:49.858Z,99420.90
2018-12-21T14:22:18.127Z,99413.92
2018-12-21T14:24:46.408Z,99408.00
2018-12-21T14:27:15.311Z,99402.49
2018-12-21T14:29:43.649Z,99411.46
2018-12-21T14:32:11.927Z,99408.25
2018-12-21T14:34:40.259Z,99389.45
2018-12-21T14:37:08.522Z,99393.09
2018-12-21T14:39:36.909Z,99390.77
2018-12-21T14:42:05.278Z,99385.16
2018-12-21T14:44:33.588Z,99392.21
2018-12-21T14:47:01.887Z,99391.81
2018-12-21T14:49:30.842Z,99383.24
2018-12-21T14:51:59.162Z,99375.34
2018-12-21T14:54:27.512Z,99365.38
2018-12-21T14:56:55.941Z,99361.97
2018-12-21T14:59:24.282Z,99360.11
2018-12-21T15:01:52.712Z,99354.98
2018-12-21T15:04:21.139Z,99363.00
2018-12-21T15:06:49.461Z,99357.78
2018-12-21T15:09:17.756Z,99351.44
2018-12-21T15:11:46.329Z,99342.50
2018-12-21T15:14:14.657Z,99348.88
2018-12-21T15:16:42.934Z,99340.13
2018-12-21T15:19:11.285Z,99334.41
2018-12-21T15:21:39.678Z,99322.83
2018-12-21T15:24:07.987Z,99327.75
2018-12-21T15:26:36.298Z,99327.14
2018-12-21T15:29:04.662Z,99318.78
2018-12-21T15:31:32.998Z,99308.69
2018-12-21T15:34:01.372Z,99310.88
2018-12-21T15:36:29.713Z,99302.88
2018-12-21T15:38:57.993Z,99308.69
2018-12-21T15:41:26.413Z,99305.34
2018-12-21T15:43:54.749Z,99293.25
2018-12-21T15:46:23.030Z,99302.78
2018-12-21T15:48:51.516Z,99303.55
2018-12-21T15:51:19.896Z,99294.76
2018-12-21T15:53:48.249Z,99290.11
2018-12-21T15:56:16.937Z,99294.00
2018-12-21T15:58:45.241Z,99292.98
2018-12-21T16:01:13.595Z,99290.27
2018-12-21T16:03:41.922Z,99298.88
2018-12-21T16:06:10.219Z,99296.83
2018-12-21T16:08:38.531Z,99288.58
2018-12-21T16:11:06.950Z,99279.91
2018-12-21T16:13:35.222Z,99284.61
2018-12-21T16:16:03.632Z,99279.70
2018-12-21T16:18:32.517Z,99277.06
2018-12-21T16:21:00.851Z,99272.23
2018-12-21T16:23:29.152Z,99285.30
2018-12-21T16:26:03.435Z,99271.11
2018-12-21T16:28:27.857Z,99266.52
2018-12-21T16:30:56.198Z,99264.34
2018-12-21T16:33:24.557Z,99253.84
2018-12-21T16:35:52.857Z,99264.70
2018-12-21T16:38:21.189Z,99256.36
2018-12-21T16:40:49.837Z,99250.64
2018-12-21T16:43:18.157Z,99259.97
2018-12-21T16:45:46.565Z,99257.92
2018-12-21T16:48:15.003Z,99264.16
2018-12-21T16:50:43.372Z,99255.99
2018-12-21T16:53:11.780Z,99253.74
2018-12-21T16:55:40.379Z,99255.66
2018-12-21T16:58:08.719Z,99261.58
2018-12-21T17:00:37.108Z,99252.05
2018-12-21T17:03:05.552Z,99247.88
2018-12-21T17:05:33.903Z,99246.13
2018-12-21T17:08:02.245Z,99241.11
2018-12-21T17:10:30.622Z,99256.05
2018-12-21T17:12:58.982Z,99243.75
2018-12-21T17:15:27.394Z,99241.56
2018-12-21T17:17:55.746Z,99239.55
2018-12-21T17:20:24.203Z,99243.80
2018-12-21T17:22:52.586Z,99236.94
2018-12-21T17:25:21.286Z,99240.60
2018-12-21T17:27:49.605Z,99234.86
2018-12-21T17:30:18.008Z,99220.39
2018-12-21T17:32:46.405Z,99229.39
2018-12-21T17:35:14.698Z,99225.40
2018-12-21T17:37:43.010Z,99217.62
2018-12-21T17:40:11.394Z,99217.27
2018-12-21T17:42:39.710Z,99213.67
2018-12-21T17:45:08.668Z,99207.95
2018-12-21T17:47:37.612Z,99204.67
2018-12-21T17:50:08.149Z,99220.20
2018-12-21T17:52:36.452Z,99217.28
2018-12-21T17:55:06.385Z,99211.87
2018-12-21T17:57:34.745Z,99207.70
2018-12-21T18:00:05.089Z,99211.03
2018-12-21T18:02:33.495Z,99218.86
2018-12-21T18:05:03.106Z,99224.80
2018-12-21T18:07:31.660Z,99216.66
2018-12-21T18:10:00.312Z,99220.31
2018-12-21T18:12:28.682Z,99229.48
2018-12-21T18:14:57.326Z,99232.91
2018-12-21T18:17:25.679Z,99229.66
2018-12-21T18:19:54.038Z,99233.52
2018-12-21T18:22:22.420Z,99231.86
2018-12-21T18:24:50.855Z,99234.13
2018-12-21T18:27:19.170Z,99233.11
2018-12-21T18:29:47.822Z,99245.43
2018-12-21T18:32:19.471Z,99235.52
2018-12-21T18:34:47.849Z,99236.58
2018-12-21T18:37:16.329Z,99241.69
2018-12-21T18:39:44.887Z,99243.36
2018-12-21T18:42:13.393Z,99251.81
2018-12-21T18:44:41.712Z,99254.00
2018-12-21T18:47:10.112Z,99267.56
2018-12-21T18:49:38.398Z,99256.30
2018-12-21T18:52:06.745Z,99267.14
2018-12-21T18:54:35.295Z,99267.35
2018-12-21T18:57:04.076Z,99272.77
2018-12-21T18:59:32.454Z,99276.84
2018-12-21T19:02:00.772Z,99277.98
2018-12-21T19:04:29.153Z,99274.65
2018-12-21T19:06:57.527Z,99285.92
2018-12-21T19:09:25.922Z,99281.62
2018-12-21T19:11:54.291Z,99277.16
2018-12-21T19:14:22.945Z,99272.03
2018-12-21T19:16:51.776Z,99272.14
2018-12-21T19:19:20.153Z,99293.74
2018-12-21T19:21:48.457Z,99292.17
2018-12-21T19:24:16.846Z,99290.20
2018-12-21T19:26:45.217Z,99296.22
2018-12-21T19:29:13.603Z,99291.13
2018-12-21T19:31:41.975Z,99295.81
2018-12-21T19:34:10.310Z,99301.52
2018-12-21T19:36:38.640Z,99284.52
2018-12-21T19:39:08.183Z,99284.87
2018-12-21T19:41:36.510Z,99287.70
2018-12-21T19:44:04.830Z,99286.11
2018-12-21T19:46:33.170Z,99280.27
2018-12-21T19:49:01.527Z,99288.61
2018-12-21T19:51:29.893Z,99284.00
2018-12-21T19:53:58.218Z,99307.06
2018-12-21T19:56:30.334Z,99291.19
2018-12-21T19:58:58.802Z,99283.92
2018-12-21T20:01:27.096Z,99284.75
2018-12-21T20:03:55.455Z,99290.77
2018-12-21T20:06:24.338Z,99295.21
2018-12-21T20:08:52.705Z,99286.09
2018-12-21T20:11:21.069Z,99303.45
2018-12-21T20:13:49.390Z,99307.45
2018-12-21T20:16:17.755Z,99303.27
2018-12-21T20:18:47.684Z,99305.28
2018-12-21T20:21:16.626Z,99295.59
2018-12-21T20:23:44.952Z,99310.70
2018-12-21T20:26:13.308Z,99301.52
2018-12-21T20:28:41.681Z,99308.83
2018-12-21T20:31:10.012Z,99317.02
2018-12-21T20:33:38.390Z,99305.98
2018-12-21T20:36:06.746Z,99280.97
2018-12-21T20:38:35.047Z,99303.79
2018-12-21T20:41:08.889Z,99307.24
2018-12-21T20:43:37.191Z,99296.36
2018-12-21T20:46:05.613Z,99321.40
2018-12-21T20:48:34.022Z,99322.44
2018-12-21T20:51:02.345Z,99312.61
2018-12-21T20:53:30.640Z,99323.59
2018-12-21T20:55:59.018Z,99336.09
2018-12-21T20:58:29.617Z,99344.00
2018-12-21T21:00:58.392Z,99354.74
2018-12-21T21:03:27.140Z,99348.69
2018-12-21T21:05:55.478Z,99366.27
2018-12-21T21:08:23.795Z,99387.70
2018-12-21T21:10:52.149Z,99373.33
2018-12-21T21:13:20.477Z,99398.09
2018-12-21T21:15:48.785Z,99400.49
2018-12-21T21:18:17.138Z,99402.44
2018-12-21T21:20:45.440Z,99421.13
2018-12-21T21:23:13.755Z,99438.45
2018-12-21T21:25:42.473Z,99416.50
2018-12-21T21:28:10.828Z,99451.12
2018-12-21T21:30:39.439Z,99449.08
2018-12-21T21:33:07.787Z,99442.31
2018-12-21T21:35:36.104Z,99438.29
2018-12-21T21:38:04.406Z,99454.47
2018-12-21T21:40:32.778Z,99452.11
2018-12-21T21:43:01.142Z,99461.56
2018-12-21T21:45:29.547Z,99474.20
2018-12-21T21:47:58.004Z,99484.57
2018-12-21T21:50:26.391Z,99479.73
2018-12-21T21:52:54.729Z,99509.08
2018-12-21T21:55:24.194Z,99498.58
2018-12-21T21:57:52.802Z,99491.56
2018-12-21T22:00:21.208Z,99499.09
2018-12-21T22:02:49.773Z,99506.51
2018-12-21T22:05:18.075Z,99517.53
2018-12-21T22:07:46.383Z,99514.17
2018-12-21T22:10:14.872Z,99537.50
2018-12-21T22:12:43.244Z,99536.66
2018-12-21T22:15:11.561Z,99532.99
2018-12-21T22:17:39.900Z,99538.97
2018-12-21T22:20:09.251Z,99550.89
2018-12-21T22:22:37.557Z,99543.94
2018-12-21T22:25:05.928Z,99560.30
2018-12-21T22:27:34.222Z,99565.28
2018-12-21T22:30:02.709Z,99556.05
2018-12-21T22:32:31.152Z,99562.15
2018-12-21T22:34:59.685Z,99575.92
2018-12-21T22:37:27.988Z,99568.13
2018-12-21T22:39:56.306Z,99581.58
2018-12-21T22:42:24.710Z,99585.92
2018-12-21T22:44:53.084Z,99601.59
2018-12-21T22:47:21.416Z,99602.18
2018-12-21T22:49:49.761Z,99606.16
2018-12-21T22:52:18.065Z,99614.22
2018-12-21T22:54:46.753Z,99607.84
2018-12-21T22:57:15.038Z,99625.61
2018-12-21T22:59:43.341Z,99639.58
2018-12-21T23:02:11.738Z,99645.96
2018-12-21T23:04:40.066Z,99657.81
2018-12-21T23:07:08.372Z,99657.86
2018-12-21T23:09:36.864Z,99670.03
2018-12-21T23:12:05.214Z,99683.28
2018-12-21T23:14:33.566Z,99672.36
2018-12-21T23:17:02.093Z,99674.10
2018-12-21T23:19:30.394Z,99683.78
2018-12-21T23:21:58.766Z,99695.08
2018-12-21T23:24:27.076Z,99698.86
2018-12-21T23:26:55.392Z,99689.95
2018-12-21T23:29:23.696Z,99709.82
2018-12-21T23:31:52.058Z,99710.80
2018-12-21T23:34:20.377Z,99710.66
2018-12-21T23:36:48.707Z,99718.82
2018-12-21T23:39:17.995Z,99726.13
2018-12-21T23:41:46.314Z,99724.83
2018-12-21T23:44:14.641Z,99738.59
2018-12-21T23:46:42.973Z,99738.58
2018-12-21T23:49:11.407Z,99754.54
2018-12-21T23:51:39.768Z,99748.35
2018-12-21T23:54:08.103Z,99769.36
2018-12-21T23:56:36.418Z,99768.16
2018-12-21T23:59:04.769Z,99785.37
